createdAt,value
2022-12-04T00:00:48.460Z,65.59
2022-12-04T00:01:48.439Z,62.45
2022-12-04T00:02:48.468Z,75.46
2022-12-04T00:03:48.398Z,61.79
2022-12-04T00:04:48.445Z,65.31
2022-12-04T00:05:48.395Z,64.97
2022-12-04T00:06:48.416Z,61.45
2022-12-04T00:07:48.435Z,61.33
2022-12-04T00:08:48.393Z,61.35
2022-12-04T00:09:48.383Z,66.58
2022-12-04T00:10:48.335Z,65.72
2022-12-04T00:11:48.395Z,70.47
2022-12-04T00:12:48.357Z,61.96
2022-12-04T00:13:48.402Z,61.80
2022-12-04T00:15:23.277Z,68.49
2022-12-04T00:15:50.381Z,66.43
2022-12-04T00:16:48.401Z,66.45
2022-12-04T00:17:48.432Z,65.92
2022-12-04T00:18:48.344Z,65.74
2022-12-04T00:19:49.359Z,61.41
2022-12-04T00:20:48.317Z,61.64
2022-12-04T00:21:55.704Z,61.37
2022-12-04T00:22:48.317Z,61.36
2022-12-04T00:23:48.280Z,61.33
2022-12-04T00:24:48.275Z,66.35
2022-12-04T00:25:48.235Z,63.07
2022-12-04T00:26:48.280Z,64.89
2022-12-04T00:27:48.249Z,62.82
2022-12-04T00:28:48.369Z,64.63
2022-12-04T00:29:48.265Z,62.92
2022-12-04T00:30:48.224Z,68.92
2022-12-04T00:31:48.291Z,72.95
2022-12-04T00:32:48.251Z,70.00
2022-12-04T00:33:48.271Z,61.79
2022-12-04T00:34:48.223Z,61.30
2022-12-04T00:35:48.182Z,70.85
2022-12-04T00:36:48.231Z,62.03
2022-12-04T00:37:48.189Z,68.57
2022-12-04T00:38:48.175Z,64.37
2022-12-04T00:39:48.217Z,62.36
2022-12-04T00:40:48.198Z,68.52
2022-12-04T00:41:48.211Z,69.94
2022-12-04T00:42:48.203Z,61.34
2022-12-04T00:43:49.188Z,61.34
2022-12-04T00:44:48.270Z,65.25
2022-12-04T00:45:48.253Z,61.48
2022-12-04T00:46:48.172Z,61.31
2022-12-04T00:47:48.160Z,67.36
2022-12-04T00:48:48.096Z,68.07
2022-12-04T00:49:48.107Z,66.39
2022-12-04T00:50:48.158Z,66.58
2022-12-04T00:51:48.107Z,61.73
2022-12-04T00:52:48.093Z,61.55
2022-12-04T00:53:48.092Z,65.08
2022-12-04T00:54:48.132Z,66.13
2022-12-04T00:55:48.134Z,68.00
2022-12-04T00:56:48.093Z,61.28
2022-12-04T00:57:48.096Z,61.48
2022-12-04T00:58:48.076Z,72.12
2022-12-04T00:59:48.063Z,71.83
2022-12-04T01:00:48.105Z,62.57
2022-12-04T01:01:48.084Z,67.92
2022-12-04T01:02:48.107Z,67.01
2022-12-04T01:03:48.058Z,62.32
2022-12-04T01:04:48.038Z,63.15
2022-12-04T01:05:48.032Z,61.53
2022-12-04T01:06:48.143Z,61.84
2022-12-04T01:07:48.045Z,66.78
2022-12-04T01:08:48.015Z,68.38
2022-12-04T01:09:47.990Z,66.04
2022-12-04T01:10:48.007Z,61.44
2022-12-04T01:11:48.004Z,67.03
2022-12-04T01:12:47.983Z,67.66
2022-12-04T01:13:47.973Z,65.75
2022-12-04T01:14:47.978Z,61.42
2022-12-04T01:15:47.999Z,66.91
2022-12-04T01:16:48.058Z,61.45
2022-12-04T01:17:48.011Z,67.99
2022-12-04T01:18:47.979Z,63.05
2022-12-04T01:19:47.967Z,61.52
2022-12-04T01:20:47.930Z,70.53
2022-12-04T01:21:47.925Z,61.20
2022-12-04T01:22:47.896Z,65.50
2022-12-04T01:23:48.004Z,61.44
2022-12-04T01:24:47.928Z,69.92
2022-12-04T01:25:47.876Z,61.71
2022-12-04T01:26:47.932Z,61.50
2022-12-04T01:27:47.934Z,67.01
2022-12-04T01:28:47.948Z,62.60
2022-12-04T01:29:47.896Z,61.37
2022-12-04T01:30:47.862Z,61.11
2022-12-04T01:31:47.926Z,61.11
2022-12-04T01:32:47.872Z,61.20
2022-12-04T01:33:47.864Z,61.11
2022-12-04T01:34:47.927Z,61.25
2022-12-04T01:35:47.857Z,61.29
2022-12-04T01:36:47.849Z,61.24
2022-12-04T01:37:47.868Z,66.30
2022-12-04T01:38:47.836Z,65.09
2022-12-04T01:39:47.970Z,65.47
2022-12-04T01:40:47.852Z,61.45
2022-12-04T01:41:47.845Z,70.13
2022-12-04T01:42:47.795Z,63.68
2022-12-04T01:43:47.830Z,61.44
2022-12-04T01:44:47.769Z,61.90
2022-12-04T01:45:47.984Z,68.24
2022-12-04T01:46:47.775Z,61.55
2022-12-04T01:47:47.789Z,66.19
2022-12-04T01:48:47.799Z,65.34
2022-12-04T01:49:47.754Z,70.08
2022-12-04T01:50:47.886Z,66.74
2022-12-04T01:51:47.758Z,70.30
2022-12-04T01:52:47.749Z,65.71
2022-12-04T01:53:47.772Z,66.42
2022-12-04T01:54:47.769Z,71.61
2022-12-04T01:55:47.703Z,62.34
2022-12-04T01:56:47.736Z,65.52
2022-12-04T01:57:47.699Z,66.03
2022-12-04T01:58:48.721Z,61.38
2022-12-04T01:59:47.723Z,61.23
2022-12-04T02:00:51.633Z,65.71
2022-12-04T02:01:48.812Z,61.78
2022-12-04T02:02:47.778Z,63.52
2022-12-04T02:03:47.727Z,63.47
2022-12-04T02:04:47.710Z,61.33
2022-12-04T02:05:47.670Z,68.07
2022-12-04T02:06:47.694Z,62.78
2022-12-04T02:07:47.690Z,65.77
2022-12-04T02:08:47.690Z,63.05
2022-12-04T02:09:47.663Z,62.77
2022-12-04T02:10:47.663Z,61.39
2022-12-04T02:11:47.675Z,61.80
2022-12-04T02:12:47.637Z,72.79
2022-12-04T02:13:47.680Z,65.38
2022-12-04T02:14:47.682Z,72.68
2022-12-04T02:15:47.639Z,64.94
2022-12-04T02:16:47.699Z,61.13
2022-12-04T02:17:47.595Z,66.11
2022-12-04T02:18:47.637Z,66.78
2022-12-04T02:19:47.601Z,61.64
2022-12-04T02:20:47.603Z,61.15
2022-12-04T02:21:48.761Z,61.29
2022-12-04T02:22:47.614Z,61.27
2022-12-04T02:23:47.579Z,61.63
2022-12-04T02:24:50.205Z,61.12
2022-12-04T02:25:47.588Z,61.30
2022-12-04T02:26:47.603Z,61.36
2022-12-04T02:27:47.573Z,61.48
2022-12-04T02:28:47.562Z,61.60
2022-12-04T02:29:47.546Z,69.04
2022-12-04T02:30:47.652Z,63.24
2022-12-04T02:31:47.531Z,66.36
2022-12-04T02:32:47.701Z,61.86
2022-12-04T02:33:47.512Z,64.85
2022-12-04T02:34:47.521Z,61.53
2022-12-04T02:35:47.487Z,62.06
2022-12-04T02:36:47.530Z,64.21
2022-12-04T02:37:47.490Z,61.17
2022-12-04T02:38:47.549Z,61.13
2022-12-04T02:39:47.523Z,61.37
2022-12-04T02:40:47.495Z,61.68
2022-12-04T02:41:47.448Z,74.03
2022-12-04T02:42:47.508Z,61.34
2022-12-04T02:43:47.610Z,61.36
2022-12-04T02:44:47.439Z,70.03
2022-12-04T02:45:47.536Z,61.60
2022-12-04T02:46:47.463Z,61.49
2022-12-04T02:47:47.431Z,61.49
2022-12-04T02:48:47.428Z,61.43
2022-12-04T02:49:47.552Z,61.37
2022-12-04T02:50:47.449Z,61.25
2022-12-04T02:51:47.415Z,61.39
2022-12-04T02:52:47.436Z,65.67
2022-12-04T02:53:47.432Z,62.03
2022-12-04T02:54:47.504Z,61.45
2022-12-04T02:55:47.378Z,64.07
2022-12-04T02:56:47.370Z,62.61
2022-12-04T02:57:47.404Z,68.57
2022-12-04T02:58:47.375Z,61.38
2022-12-04T02:59:47.388Z,61.19
2022-12-04T03:00:47.401Z,61.48
2022-12-04T03:01:47.445Z,65.20
2022-12-04T03:02:47.458Z,67.20
2022-12-04T03:03:47.351Z,62.86
2022-12-04T03:04:47.344Z,65.69
2022-12-04T03:05:47.363Z,61.38
2022-12-04T03:06:47.329Z,61.48
2022-12-04T03:07:47.351Z,61.65
2022-12-04T03:08:47.326Z,63.87
2022-12-04T03:09:47.321Z,61.64
2022-12-04T03:10:47.297Z,61.49
2022-12-04T03:11:47.344Z,65.48
2022-12-04T03:12:47.286Z,62.18
2022-12-04T03:13:47.284Z,61.79
2022-12-04T03:14:47.274Z,66.95
2022-12-04T03:15:47.293Z,61.25
2022-12-04T03:16:47.371Z,61.25
2022-12-04T03:17:47.251Z,61.23
2022-12-04T03:18:47.229Z,61.24
2022-12-04T03:19:47.258Z,61.39
2022-12-04T03:20:47.277Z,61.43
2022-12-04T03:21:47.267Z,61.42
2022-12-04T03:22:47.343Z,61.37
2022-12-04T03:23:47.210Z,61.41
2022-12-04T03:24:47.227Z,61.45
2022-12-04T03:25:47.208Z,61.40
2022-12-04T03:26:47.202Z,61.43
2022-12-04T03:27:47.374Z,61.46
2022-12-04T03:28:47.221Z,61.52
2022-12-04T03:29:47.220Z,61.59
2022-12-04T03:30:47.238Z,61.61
2022-12-04T03:31:47.165Z,61.52
2022-12-04T03:32:47.192Z,61.53
2022-12-04T03:33:47.197Z,61.61
2022-12-04T03:34:47.193Z,64.29
2022-12-04T03:35:47.179Z,61.46
2022-12-04T03:36:47.205Z,61.43
2022-12-04T03:37:47.183Z,61.52
2022-12-04T03:38:47.258Z,62.29
2022-12-04T03:39:47.139Z,72.60
2022-12-04T03:40:47.156Z,62.11
2022-12-04T03:41:49.943Z,61.54
2022-12-04T03:42:47.131Z,61.67
2022-12-04T03:43:47.142Z,61.92
2022-12-04T03:44:47.133Z,65.63
2022-12-04T03:45:47.186Z,61.81
2022-12-04T03:46:47.128Z,61.55
2022-12-04T03:47:47.113Z,61.51
2022-12-04T03:48:47.115Z,61.57
2022-12-04T03:49:47.214Z,61.68
2022-12-04T03:50:47.089Z,62.03
2022-12-04T03:51:47.076Z,65.30
2022-12-04T03:52:47.063Z,61.45
2022-12-04T03:53:47.106Z,61.27
2022-12-04T03:54:47.087Z,61.22
2022-12-04T03:55:47.150Z,61.20
2022-12-04T03:56:47.072Z,61.19
2022-12-04T03:57:47.072Z,61.09
2022-12-04T03:58:47.083Z,61.27
2022-12-04T03:59:49.910Z,61.27
2022-12-04T04:00:47.135Z,70.52
2022-12-04T04:01:48.095Z,63.76
2022-12-04T04:02:47.059Z,61.60
2022-12-04T04:03:47.007Z,65.88
2022-12-04T04:04:47.010Z,61.14
2022-12-04T04:05:47.003Z,61.27
2022-12-04T04:06:47.112Z,66.33
2022-12-04T04:07:47.033Z,66.81
2022-12-04T04:08:46.996Z,61.22
2022-12-04T04:09:46.981Z,61.71
2022-12-04T04:10:46.996Z,64.62
2022-12-04T04:11:47.010Z,61.36
2022-12-04T04:12:46.936Z,66.91
2022-12-04T04:13:46.963Z,61.71
2022-12-04T04:14:46.989Z,64.27
2022-12-04T04:15:47.057Z,61.72
2022-12-04T04:16:46.935Z,61.80
2022-12-04T04:17:46.964Z,61.82
2022-12-04T04:18:46.959Z,65.62
2022-12-04T04:19:46.923Z,61.90
2022-12-04T04:20:46.921Z,64.38
2022-12-04T04:21:46.922Z,69.32
2022-12-04T04:22:50.397Z,65.95
2022-12-04T04:23:46.879Z,64.69
2022-12-04T04:24:46.883Z,70.06
2022-12-04T04:25:46.876Z,63.47
2022-12-04T04:26:46.894Z,65.09
2022-12-04T04:27:46.884Z,61.90
2022-12-04T04:28:46.922Z,76.73
2022-12-04T04:29:52.245Z,66.67
2022-12-04T04:30:48.869Z,65.55
2022-12-04T04:31:46.871Z,70.58
2022-12-04T04:32:46.873Z,61.93
2022-12-04T04:33:46.980Z,61.49
2022-12-04T04:34:46.865Z,61.75
2022-12-04T04:35:46.833Z,66.05
2022-12-04T04:36:46.820Z,64.44
2022-12-04T04:37:47.788Z,65.22
2022-12-04T04:38:46.818Z,61.42
2022-12-04T04:39:46.858Z,60.98
2022-12-04T04:40:46.797Z,64.97
2022-12-04T04:41:46.804Z,65.56
2022-12-04T04:42:46.792Z,67.60
2022-12-04T04:43:46.804Z,65.86
2022-12-04T04:44:46.813Z,61.20
2022-12-04T04:45:46.802Z,61.29
2022-12-04T04:46:46.908Z,66.07
2022-12-04T04:47:46.780Z,74.49
2022-12-04T04:48:46.766Z,68.96
2022-12-04T04:49:46.728Z,61.92
2022-12-04T04:50:46.756Z,61.24
2022-12-04T04:51:46.786Z,61.21
2022-12-04T04:52:46.727Z,68.03
2022-12-04T04:53:46.744Z,65.25
2022-12-04T04:54:46.740Z,62.13
2022-12-04T04:55:46.772Z,65.41
2022-12-04T04:56:46.723Z,61.36
2022-12-04T04:57:46.696Z,63.37
2022-12-04T04:58:46.741Z,65.45
2022-12-04T04:59:46.706Z,65.99
2022-12-04T05:00:46.680Z,68.27
2022-12-04T05:01:46.851Z,68.13
2022-12-04T05:02:46.735Z,69.91
2022-12-04T05:03:46.677Z,62.89
2022-12-04T05:04:46.671Z,67.10
2022-12-04T05:05:46.652Z,61.73
2022-12-04T05:06:46.740Z,61.29
2022-12-04T05:07:46.730Z,61.20
2022-12-04T05:08:46.664Z,61.52
2022-12-04T05:09:46.668Z,61.46
2022-12-04T05:10:46.619Z,63.65
2022-12-04T05:11:46.670Z,65.23
2022-12-04T05:12:46.641Z,65.56
2022-12-04T05:13:46.600Z,68.32
2022-12-04T05:14:46.566Z,65.87
2022-12-04T05:15:46.620Z,61.26
2022-12-04T05:16:46.578Z,61.12
2022-12-04T05:17:46.600Z,61.90
2022-12-04T05:18:46.568Z,71.84
2022-12-04T05:19:46.574Z,63.25
2022-12-04T05:20:46.591Z,61.48
2022-12-04T05:21:46.578Z,68.91
2022-12-04T05:22:46.540Z,68.00
2022-12-04T05:23:46.607Z,66.11
2022-12-04T05:24:46.583Z,65.08
2022-12-04T05:25:46.511Z,61.42
2022-12-04T05:26:46.544Z,70.77
2022-12-04T05:27:46.514Z,61.72
2022-12-04T05:28:46.565Z,69.64
2022-12-04T05:29:46.560Z,69.91
2022-12-04T05:30:46.520Z,61.74
2022-12-04T05:31:46.586Z,65.35
2022-12-04T05:32:46.490Z,60.87
2022-12-04T05:33:46.482Z,65.13
2022-12-04T05:34:46.605Z,65.65
2022-12-04T05:35:46.471Z,60.77
2022-12-04T05:36:46.501Z,60.58
2022-12-04T05:37:46.504Z,60.50
2022-12-04T05:38:46.493Z,60.54
2022-12-04T05:39:46.491Z,60.47
2022-12-04T05:40:46.477Z,60.63
2022-12-04T05:41:46.470Z,60.82
2022-12-04T05:42:46.464Z,64.20
2022-12-04T05:43:46.453Z,61.26
2022-12-04T05:44:46.453Z,61.10
2022-12-04T05:45:46.542Z,61.03
2022-12-04T05:46:46.576Z,60.93
2022-12-04T05:47:46.391Z,61.07
2022-12-04T05:48:46.401Z,60.76
2022-12-04T05:49:46.413Z,60.59
2022-12-04T05:50:46.444Z,61.18
2022-12-04T05:51:46.411Z,64.94
2022-12-04T05:52:46.406Z,60.37
2022-12-04T05:53:46.386Z,60.80
2022-12-04T05:54:46.363Z,60.97
2022-12-04T05:55:46.361Z,60.96
2022-12-04T05:56:46.492Z,60.96
2022-12-04T05:57:46.375Z,61.05
2022-12-04T05:58:46.321Z,65.08
2022-12-04T05:59:46.321Z,61.23
2022-12-04T06:00:46.341Z,61.48
2022-12-04T06:01:46.440Z,65.69
2022-12-04T06:02:46.395Z,61.74
2022-12-04T06:03:46.346Z,62.09
2022-12-04T06:04:46.325Z,61.20
2022-12-04T06:05:46.314Z,61.00
2022-12-04T06:06:46.307Z,65.84
2022-12-04T06:07:46.380Z,61.95
2022-12-04T06:08:46.324Z,62.37
2022-12-04T06:09:46.297Z,65.69
2022-12-04T06:10:46.262Z,61.65
2022-12-04T06:11:46.287Z,61.78
2022-12-04T06:12:46.390Z,61.25
2022-12-04T06:13:46.287Z,61.49
2022-12-04T06:14:46.244Z,65.73
2022-12-04T06:15:46.284Z,69.15
2022-12-04T06:16:46.313Z,61.24
2022-12-04T06:17:46.268Z,65.40
2022-12-04T06:18:46.266Z,65.32
2022-12-04T06:19:46.339Z,61.45
2022-12-04T06:20:46.321Z,61.14
2022-12-04T06:21:46.190Z,70.92
2022-12-04T06:22:46.172Z,68.37
2022-12-04T06:23:47.732Z,65.99
2022-12-04T06:24:46.234Z,72.77
2022-12-04T06:25:46.233Z,64.12
2022-12-04T06:27:11.385Z,61.62
2022-12-04T06:27:47.189Z,66.93
2022-12-04T06:28:46.206Z,61.76
2022-12-04T06:29:46.319Z,61.65
2022-12-04T06:30:46.186Z,69.23
2022-12-04T06:31:46.211Z,62.26
2022-12-04T06:32:46.186Z,61.02
2022-12-04T06:33:46.147Z,61.09
2022-12-04T06:34:46.204Z,61.61
2022-12-04T06:35:46.138Z,62.00
2022-12-04T06:36:46.168Z,65.59
2022-12-04T06:37:46.132Z,61.49
2022-12-04T06:38:46.162Z,61.72
2022-12-04T06:39:46.111Z,61.24
2022-12-04T06:40:46.266Z,60.95
2022-12-04T06:41:46.142Z,61.53
2022-12-04T06:42:46.136Z,61.37
2022-12-04T06:43:46.095Z,69.43
2022-12-04T06:44:46.114Z,75.00
2022-12-04T06:45:46.318Z,67.80
2022-12-04T06:46:47.322Z,68.67
2022-12-04T06:47:46.101Z,61.96
2022-12-04T06:48:46.073Z,65.24
2022-12-04T06:49:46.098Z,61.54
2022-12-04T06:50:46.063Z,60.86
2022-12-04T06:51:46.279Z,61.20
2022-12-04T06:52:46.021Z,72.60
2022-12-04T06:53:46.055Z,68.11
2022-12-04T06:54:46.044Z,64.16
2022-12-04T06:55:46.011Z,65.85
2022-12-04T06:56:46.129Z,61.08
2022-12-04T06:57:46.028Z,68.42
2022-12-04T06:58:46.026Z,61.33
2022-12-04T06:59:46.036Z,61.32
2022-12-04T07:00:46.062Z,67.71
2022-12-04T07:01:46.027Z,65.31
2022-12-04T07:02:46.054Z,68.86
2022-12-04T07:03:51.068Z,66.94
2022-12-04T07:04:46.981Z,66.88
2022-12-04T07:05:46.002Z,64.96
2022-12-04T07:06:45.956Z,63.20
2022-12-04T07:07:46.119Z,71.44
2022-12-04T07:08:45.970Z,62.02
2022-12-04T07:09:45.958Z,65.20
2022-12-04T07:10:45.984Z,65.86
2022-12-04T07:11:45.953Z,61.62
2022-12-04T07:12:45.951Z,68.60
2022-12-04T07:13:45.953Z,62.68
2022-12-04T07:14:45.917Z,61.39
2022-12-04T07:15:45.915Z,61.15
2022-12-04T07:16:45.934Z,61.58
2022-12-04T07:17:45.871Z,63.58
2022-12-04T07:18:45.940Z,65.04
2022-12-04T07:19:45.894Z,65.55
2022-12-04T07:20:45.887Z,65.52
2022-12-04T07:21:45.922Z,68.76
2022-12-04T07:22:45.893Z,66.56
2022-12-04T07:23:45.891Z,67.80
2022-12-04T07:24:45.883Z,66.19
2022-12-04T07:25:45.857Z,61.18
2022-12-04T07:26:45.858Z,64.01
2022-12-04T07:27:45.846Z,70.68
2022-12-04T07:28:45.840Z,69.80
2022-12-04T07:29:45.844Z,71.13
2022-12-04T07:30:45.815Z,65.65
2022-12-04T07:31:45.886Z,65.42
2022-12-04T07:32:45.782Z,67.70
2022-12-04T07:33:45.794Z,61.25
2022-12-04T07:34:45.815Z,61.21
2022-12-04T07:35:45.822Z,61.25
2022-12-04T07:36:45.773Z,62.04
2022-12-04T07:37:45.805Z,70.69
2022-12-04T07:38:45.802Z,65.52
2022-12-04T07:39:45.794Z,65.24
2022-12-04T07:40:45.906Z,71.26
2022-12-04T07:41:45.734Z,65.75
2022-12-04T07:42:45.770Z,65.38
2022-12-04T07:43:45.750Z,66.86
2022-12-04T07:44:45.732Z,62.19
2022-12-04T07:45:45.830Z,73.17
2022-12-04T07:46:45.720Z,76.62
2022-12-04T07:47:45.722Z,68.64
2022-12-04T07:48:45.735Z,65.82
2022-12-04T07:49:45.734Z,70.56
2022-12-04T07:50:45.682Z,73.79
2022-12-04T07:51:45.867Z,67.63
2022-12-04T07:52:45.677Z,68.96
2022-12-04T07:53:45.706Z,61.48
2022-12-04T07:54:45.645Z,61.03
2022-12-04T07:55:45.678Z,61.65
2022-12-04T07:56:45.680Z,62.59
2022-12-04T07:57:45.700Z,72.72
2022-12-04T07:58:45.647Z,69.35
2022-12-04T07:59:45.705Z,70.72
2022-12-04T08:00:45.657Z,65.78
2022-12-04T08:01:45.735Z,68.47
2022-12-04T08:02:45.675Z,66.93
2022-12-04T08:03:48.502Z,67.60
2022-12-04T08:04:46.729Z,66.60
2022-12-04T08:05:45.597Z,61.72
2022-12-04T08:06:45.733Z,70.01
2022-12-04T08:07:45.713Z,61.45
2022-12-04T08:08:45.721Z,68.73
2022-12-04T08:09:45.622Z,67.18
2022-12-04T08:10:45.617Z,64.10
2022-12-04T08:11:45.643Z,66.19
2022-12-04T08:12:45.584Z,72.02
2022-12-04T08:13:45.726Z,65.20
2022-12-04T08:14:45.590Z,61.67
2022-12-04T08:15:45.585Z,61.22
2022-12-04T08:16:51.069Z,65.49
2022-12-04T08:17:46.583Z,68.73
2022-12-04T08:18:45.558Z,74.41
2022-12-04T08:19:45.596Z,68.52
2022-12-04T08:20:45.546Z,73.80
2022-12-04T08:21:45.531Z,70.62
2022-12-04T08:22:45.527Z,66.92
2022-12-04T08:23:45.503Z,74.41
2022-12-04T08:24:45.649Z,73.52
2022-12-04T08:25:45.529Z,62.65
2022-12-04T08:26:45.522Z,74.29
2022-12-04T08:27:47.500Z,67.41
2022-12-04T08:28:46.519Z,73.19
2022-12-04T08:29:45.500Z,67.81
2022-12-04T08:30:46.523Z,73.33
2022-12-04T08:31:45.499Z,68.78
2022-12-04T08:32:45.481Z,70.69
2022-12-04T08:33:45.468Z,70.84
2022-12-04T08:34:45.476Z,74.34
2022-12-04T08:35:45.456Z,66.18
2022-12-04T08:36:45.456Z,72.23
2022-12-04T08:37:45.463Z,66.11
2022-12-04T08:38:45.444Z,61.73
2022-12-04T08:39:45.441Z,72.25
2022-12-04T08:40:45.421Z,67.47
2022-12-04T08:41:45.428Z,65.78
2022-12-04T08:42:45.395Z,66.22
2022-12-04T08:43:45.408Z,67.14
2022-12-04T08:44:45.426Z,62.35
2022-12-04T08:45:45.497Z,69.29
2022-12-04T08:46:45.485Z,78.85
2022-12-04T08:47:50.612Z,68.73
2022-12-04T08:48:47.403Z,77.84
2022-12-04T08:49:45.394Z,73.46
2022-12-04T08:50:45.406Z,69.17
2022-12-04T08:51:45.385Z,74.03
2022-12-04T08:52:45.383Z,75.43
2022-12-04T08:53:45.359Z,75.98
2022-12-04T08:54:45.376Z,75.92
2022-12-04T08:55:45.362Z,75.45
2022-12-04T08:56:45.357Z,75.10
2022-12-04T08:57:45.316Z,68.14
2022-12-04T08:58:45.330Z,63.89
2022-12-04T08:59:45.345Z,73.87
2022-12-04T09:00:45.327Z,66.30
2022-12-04T09:01:45.468Z,75.66
2022-12-04T09:02:45.303Z,67.83
2022-12-04T09:03:45.286Z,75.03
2022-12-04T09:04:46.317Z,72.03
2022-12-04T09:05:46.411Z,75.20
2022-12-04T09:06:45.283Z,75.76
2022-12-04T09:07:45.289Z,71.47
2022-12-04T09:08:45.271Z,72.46
2022-12-04T09:09:48.448Z,69.80
2022-12-04T09:10:45.264Z,69.09
2022-12-04T09:11:45.306Z,69.48
2022-12-04T09:12:45.268Z,77.41
2022-12-04T09:13:45.256Z,72.76
2022-12-04T09:14:45.257Z,67.71
2022-12-04T09:15:45.238Z,69.22
2022-12-04T09:16:45.839Z,77.20
2022-12-04T09:17:45.218Z,71.78
2022-12-04T09:18:45.190Z,66.21
2022-12-04T09:19:45.226Z,64.68
2022-12-04T09:20:45.182Z,63.96
2022-12-04T09:21:45.207Z,68.83
2022-12-04T09:23:02.729Z,63.12
2022-12-04T09:23:47.197Z,69.42
2022-12-04T09:24:45.181Z,70.90
2022-12-04T09:25:45.175Z,70.46
2022-12-04T09:26:45.155Z,66.65
2022-12-04T09:27:45.157Z,75.53
2022-12-04T09:28:45.159Z,71.20
2022-12-04T09:29:45.134Z,69.59
2022-12-04T09:30:45.220Z,79.55
2022-12-04T09:31:45.204Z,66.69
2022-12-04T09:32:45.135Z,73.12
2022-12-04T09:33:45.186Z,66.27
2022-12-04T09:34:49.579Z,69.78
2022-12-04T09:35:47.123Z,71.94
2022-12-04T09:36:45.115Z,79.19
2022-12-04T09:37:45.134Z,70.47
2022-12-04T09:38:45.170Z,67.62
2022-12-04T09:39:45.100Z,75.98
2022-12-04T09:40:45.083Z,66.68
2022-12-04T09:41:45.065Z,69.81
2022-12-04T09:42:45.099Z,79.83
2022-12-04T09:43:45.043Z,76.68
2022-12-04T09:44:45.115Z,66.02
2022-12-04T09:45:45.043Z,63.05
2022-12-04T09:46:45.402Z,72.79
2022-12-04T09:47:45.060Z,76.53
2022-12-04T09:48:45.063Z,70.60
2022-12-04T09:49:45.148Z,77.90
2022-12-04T09:50:45.065Z,74.29
2022-12-04T09:51:45.039Z,70.23
2022-12-04T09:52:45.063Z,76.58
2022-12-04T09:53:45.021Z,66.03
2022-12-04T09:54:45.008Z,74.30
2022-12-04T09:55:45.155Z,72.66
2022-12-04T09:56:44.986Z,66.01
2022-12-04T09:57:45.026Z,69.59
2022-12-04T09:58:44.975Z,75.66
2022-12-04T09:59:44.981Z,71.35
2022-12-04T10:00:45.094Z,73.38
2022-12-04T10:01:45.013Z,64.73
2022-12-04T10:02:45.144Z,62.12
2022-12-04T10:03:45.179Z,66.89
2022-12-04T10:04:44.948Z,69.27
2022-12-04T10:05:44.942Z,72.41
2022-12-04T10:06:44.946Z,76.12
2022-12-04T10:07:44.957Z,68.61
2022-12-04T10:08:44.918Z,80.89
2022-12-04T10:09:44.935Z,72.85
2022-12-04T10:10:45.913Z,71.17
2022-12-04T10:11:44.923Z,69.26
2022-12-04T10:12:44.905Z,70.98
2022-12-04T10:13:44.933Z,72.51
2022-12-04T10:14:44.948Z,70.85
2022-12-04T10:15:44.966Z,78.66
2022-12-04T10:16:44.899Z,70.06
2022-12-04T10:17:45.014Z,73.66
2022-12-04T10:18:44.915Z,73.47
2022-12-04T10:19:44.872Z,69.51
2022-12-04T10:20:45.884Z,72.57
2022-12-04T10:21:44.876Z,74.42
2022-12-04T10:22:44.861Z,79.35
2022-12-04T10:23:44.877Z,76.56
2022-12-04T10:24:44.888Z,77.40
2022-12-04T10:25:44.859Z,76.21
2022-12-04T10:26:44.836Z,73.14
2022-12-04T10:27:44.858Z,66.48
2022-12-04T10:28:44.959Z,72.56
2022-12-04T10:29:44.778Z,74.87
2022-12-04T10:30:44.838Z,77.83
2022-12-04T10:31:44.858Z,75.78
2022-12-04T10:32:44.792Z,71.82
2022-12-04T10:33:44.835Z,71.27
2022-12-04T10:34:45.915Z,71.02
2022-12-04T10:35:44.817Z,73.81
2022-12-04T10:36:44.832Z,69.15
2022-12-04T10:37:44.807Z,62.47
2022-12-04T10:38:44.791Z,60.76
2022-12-04T10:39:44.878Z,72.52
2022-12-04T10:40:44.769Z,74.05
2022-12-04T10:41:44.766Z,79.01
2022-12-04T10:42:44.736Z,78.11
2022-12-04T10:43:44.755Z,77.77
2022-12-04T10:44:44.792Z,80.59
2022-12-04T10:45:44.715Z,73.73
2022-12-04T10:46:46.462Z,69.11
2022-12-04T10:47:44.755Z,70.78
2022-12-04T10:48:44.714Z,74.95
2022-12-04T10:49:44.710Z,72.82
2022-12-04T10:50:44.795Z,74.29
2022-12-04T10:51:44.692Z,70.75
2022-12-04T10:52:44.718Z,78.80
2022-12-04T10:53:44.727Z,79.86
2022-12-04T10:54:44.706Z,80.88
2022-12-04T10:55:44.825Z,77.99
2022-12-04T10:56:44.681Z,76.52
2022-12-04T10:57:44.664Z,80.80
2022-12-04T10:58:44.671Z,71.17
2022-12-04T10:59:44.650Z,73.65
2022-12-04T11:00:44.614Z,72.77
2022-12-04T11:01:44.827Z,80.26
2022-12-04T11:02:44.834Z,74.15
2022-12-04T11:03:44.754Z,77.94
2022-12-04T11:04:44.614Z,70.77
2022-12-04T11:05:44.597Z,79.05
2022-12-04T11:06:44.625Z,68.12
2022-12-04T11:07:44.640Z,77.24
2022-12-04T11:08:44.597Z,75.92
2022-12-04T11:09:44.581Z,76.86
2022-12-04T11:10:44.581Z,79.93
2022-12-04T11:11:44.628Z,76.80
2022-12-04T11:12:44.615Z,74.70
2022-12-04T11:13:44.573Z,72.43
2022-12-04T11:14:46.972Z,74.55
2022-12-04T11:15:44.612Z,74.95
2022-12-04T11:16:44.796Z,78.21
2022-12-04T11:17:44.615Z,63.95
2022-12-04T11:18:44.574Z,73.82
2022-12-04T11:19:44.529Z,73.89
2022-12-04T11:20:47.048Z,70.93
2022-12-04T11:21:45.545Z,73.09
2022-12-04T11:22:44.510Z,77.19
2022-12-04T11:23:44.575Z,76.67
2022-12-04T11:24:44.510Z,74.89
2022-12-04T11:25:44.491Z,73.61
2022-12-04T11:26:44.543Z,74.76
2022-12-04T11:27:44.505Z,73.20
2022-12-04T11:28:44.573Z,78.06
2022-12-04T11:29:44.479Z,68.57
2022-12-04T11:30:44.495Z,75.07
2022-12-04T11:31:44.517Z,80.17
2022-12-04T11:32:44.510Z,76.78
2022-12-04T11:33:44.477Z,77.53
2022-12-04T11:34:44.461Z,71.33
2022-12-04T11:35:44.482Z,75.15
2022-12-04T11:36:44.471Z,77.52
2022-12-04T11:37:45.600Z,78.07
2022-12-04T11:38:44.402Z,71.74
2022-12-04T11:39:44.473Z,69.79
2022-12-04T11:40:44.401Z,62.06
2022-12-04T11:41:44.430Z,68.97
2022-12-04T11:42:44.386Z,76.87
2022-12-04T11:43:44.400Z,80.37
2022-12-04T11:44:44.412Z,73.43
2022-12-04T11:45:44.538Z,77.13
2022-12-04T11:46:44.460Z,75.58
2022-12-04T11:47:44.402Z,76.21
2022-12-04T11:48:44.405Z,81.01
2022-12-04T11:49:44.388Z,72.54
2022-12-04T11:50:44.490Z,72.45
2022-12-04T11:51:44.362Z,72.86
2022-12-04T11:52:44.368Z,66.09
2022-12-04T11:53:44.358Z,76.42
2022-12-04T11:54:44.352Z,77.93
2022-12-04T11:55:44.368Z,77.05
2022-12-04T11:56:44.452Z,82.15
2022-12-04T11:57:44.346Z,68.86
2022-12-04T11:58:44.312Z,75.81
2022-12-04T11:59:44.345Z,80.39
2022-12-04T12:00:44.329Z,76.72
2022-12-04T12:01:44.459Z,72.57
2022-12-04T12:02:44.401Z,73.57
2022-12-04T12:03:44.347Z,81.05
2022-12-04T12:04:44.332Z,76.15
2022-12-04T12:05:44.303Z,73.35
2022-12-04T12:06:44.315Z,75.27
2022-12-04T12:07:44.385Z,74.04
2022-12-04T12:08:44.265Z,75.04
2022-12-04T12:09:44.297Z,79.54
2022-12-04T12:10:44.972Z,65.74
2022-12-04T12:11:45.227Z,77.42
2022-12-04T12:12:44.373Z,73.32
2022-12-04T12:13:44.257Z,81.48
2022-12-04T12:14:44.222Z,76.72
2022-12-04T12:15:44.242Z,72.75
2022-12-04T12:16:49.918Z,65.49
2022-12-04T12:17:46.267Z,75.61
2022-12-04T12:18:44.248Z,73.53
2022-12-04T12:19:44.231Z,75.78
2022-12-04T12:20:44.200Z,75.28
2022-12-04T12:21:44.236Z,68.07
2022-12-04T12:22:44.210Z,70.50
2022-12-04T12:23:44.358Z,78.87
2022-12-04T12:24:46.866Z,75.02
2022-12-04T12:25:51.683Z,77.97
2022-12-04T12:26:44.218Z,77.37
2022-12-04T12:28:17.055Z,75.84
2022-12-04T12:28:44.237Z,74.53
2022-12-04T12:29:44.196Z,78.20
2022-12-04T12:30:44.160Z,72.78
2022-12-04T12:31:44.212Z,70.06
2022-12-04T12:32:44.151Z,75.55
2022-12-04T12:33:44.161Z,72.20
2022-12-04T12:34:44.164Z,72.88
2022-12-04T12:35:44.138Z,76.41
2022-12-04T12:36:44.232Z,71.55
2022-12-04T12:37:44.138Z,81.19
2022-12-04T12:38:44.142Z,77.38
2022-12-04T12:39:44.248Z,69.93
2022-12-04T12:40:44.104Z,78.67
2022-12-04T12:41:45.128Z,68.89
2022-12-04T12:42:44.132Z,75.74
2022-12-04T12:43:44.248Z,75.51
2022-12-04T12:44:44.075Z,72.11
2022-12-04T12:45:44.215Z,76.68
2022-12-04T12:46:44.070Z,76.20
2022-12-04T12:47:44.080Z,78.84
2022-12-04T12:48:44.070Z,78.69
2022-12-04T12:49:44.082Z,75.96
2022-12-04T12:50:44.187Z,79.87
2022-12-04T12:51:44.076Z,78.57
2022-12-04T12:52:44.086Z,79.06